OBBI

Bahrain International Airport

Manama, Bahrain
TAF OBBI 162300Z 1701/1806 14010KT CAVOK BECMG 1708/1710 33020G30KT PROB30 TEMPO 1708/1713 3000 DU
Issued Valid From Valid To
Jan-16 @ 23:00 UTC
(6 hours ago)
Jan-17 @ 01:00 UTC
(4 hours ago)
Jan-18 @ 06:00 UTC
(-1 days ago)
Jan-17 @ 01:00 to Jan-17 @ 08:00
TAF OBBI 162300Z 1701/1806 14010KT CAVOK
Wind Visibility Clouds Conditions
140° at 10 knots 10,000+ meters
  • No significant clouds
Temporary  (Probability 30%) Jan-17 @ 08:00 to Jan-17 @ 13:00
PROB30 TEMPO 1708/1713 3000 DU
Visibility Conditions
2,993 meters
  • Dust
Becoming Jan-17 @ 08:00 to Jan-18 @ 06:00
BECMG 1708/1710 33020G30KT
Wind Visibility Clouds Conditions
330° at 20 knots
 Gusting to 30 knots
10,000+ meters
  • No significant clouds
TAF OBBI 162300Z 1701/1806 14010KT CAVOK BECMG 1708/1710 33020G30KT PROB30 TEMPO 1708/1713 3000 DU
Issued Jan-16 @ 23:00 UTC
(6 hours ago)
Valid From Jan-17 @ 01:00 UTC
(4 hours ago)
Valid To Jan-18 @ 06:00 UTC
(-1 days ago)
Jan-17 @ 01:00 - Jan-17 @ 08:00
Wind Visibility
140° at 10 knots 10,000+ meters
Clouds
  • No significant clouds
Conditions
Probability 30% Temporary Jan-17 @ 08:00 - Jan-17 @ 13:00
Conditions
  • Dust
Becoming Jan-17 @ 08:00 - Jan-18 @ 06:00
Wind Visibility
330° at 20 knots
 Gusting to 30 knots
10,000+ meters
Clouds
  • No significant clouds
Conditions